Time;durP1;ratioP1;P1;durP2;ratioP2;P2;SDS_P1;SDS_P2;PMS_P1;PMS_P2;Temp;Humidity;BMP_temperature;BMP_pressure;BME280_temperature;BME280_humidity;BME280_pressure;Samples;Min_cycle;Max_cycle;Signal;HPM_P1;HPM_P2
2022/12/26 00:00:17;;;;;;;8.50;8.30;;;9.10;99.90;;;;;;5084101;28;20295;-83
2022/12/26 00:02:47;;;;;;;8.43;8.23;;;9.20;99.90;;;;;;5093830;28;20237;-83
2022/12/26 00:05:15;;;;;;;8.40;8.20;;;9.20;99.90;;;;;;5100058;28;20245;-83
2022/12/26 00:07:43;;;;;;;8.40;8.20;;;9.30;99.90;;;;;;5099723;28;20234;-84
2022/12/26 00:10:11;;;;;;;8.50;8.30;;;9.30;99.90;;;;;;5088967;28;20226;-83
2022/12/26 00:12:39;;;;;;;8.50;8.30;;;9.30;99.90;;;;;;5082212;28;20230;-84
2022/12/26 00:15:07;;;;;;;8.40;8.20;;;9.30;99.90;;;;;;5081484;28;20230;-85
2022/12/26 00:17:36;;;;;;;8.17;7.97;;;9.30;99.90;;;;;;5081488;28;20352;-84
2022/12/26 00:20:07;;;;;;;8.40;8.20;;;9.30;99.90;;;;;;5081942;28;20230;-84
2022/12/26 00:22:35;;;;;;;8.40;8.20;;;9.40;99.90;;;;;;5082081;28;20218;-83
2022/12/26 00:25:03;;;;;;;8.40;8.20;;;9.40;99.90;;;;;;5082295;28;20234;-83
2022/12/26 00:27:31;;;;;;;8.40;8.20;;;9.40;99.90;;;;;;5082670;28;20264;-83
2022/12/26 00:29:58;;;;;;;8.60;8.40;;;9.40;99.90;;;;;;5090398;28;20258;-83
2022/12/26 00:32:26;;;;;;;8.60;8.40;;;9.50;99.90;;;;;;5097138;28;20237;-83
2022/12/26 00:34:54;;;;;;;8.80;8.60;;;9.50;99.90;;;;;;5094494;28;20233;-83
2022/12/26 00:37:23;;;;;;;8.80;8.60;;;9.60;99.90;;;;;;5087379;28;20239;-83
2022/12/26 00:39:51;;;;;;;8.67;8.47;;;9.60;99.90;;;;;;5098755;28;20214;-83
2022/12/26 00:42:18;;;;;;;8.40;8.20;;;9.60;99.90;;;;;;5091996;28;20284;-84
2022/12/26 00:44:46;;;;;;;8.70;8.50;;;9.70;99.90;;;;;;5080423;28;20234;-84
2022/12/26 00:47:14;;;;;;;8.90;8.70;;;9.70;99.90;;;;;;5081399;28;20303;-84
2022/12/26 00:49:43;;;;;;;8.73;8.53;;;9.70;99.90;;;;;;5081015;28;20226;-84
2022/12/26 00:52:11;;;;;;;8.80;8.60;;;9.80;99.90;;;;;;5080145;28;20222;-83
2022/12/26 00:54:40;;;;;;;8.80;8.60;;;9.80;99.90;;;;;;5080918;28;20234;-84
2022/12/26 00:57:09;;;;;;;8.87;8.63;;;9.80;99.90;;;;;;5080496;28;20276;-83
2022/12/26 00:59:37;;;;;;;8.63;8.43;;;9.80;99.90;;;;;;5081271;28;20237;-83
2022/12/26 01:02:36;;;;;;;8.70;8.50;;;9.70;99.90;;;;;;5081243;28;20237;-83
2022/12/26 01:04:53;;;;;;;9.00;8.70;;;9.70;99.90;;;;;;5082419;28;20233;-84
2022/12/26 01:07:20;;;;;;;8.60;8.40;;;9.70;99.90;;;;;;5083480;28;20230;-83
2022/12/26 01:09:50;;;;;;;8.80;8.60;;;9.70;99.90;;;;;;5083537;28;20252;-83
2022/12/26 01:12:17;;;;;;;9.10;8.80;;;9.70;99.90;;;;;;5082393;28;20222;-83
2022/12/26 01:14:55;;;;;;;8.93;8.63;;;9.70;99.90;;;;;;5082615;28;20261;-83
2022/12/26 01:17:23;;;;;;;9.00;8.70;;;9.70;99.90;;;;;;5082803;28;20242;-84
2022/12/26 01:19:51;;;;;;;9.00;8.70;;;9.70;99.90;;;;;;5080370;28;20229;-83
2022/12/26 01:22:18;;;;;;;8.80;8.60;;;9.60;99.90;;;;;;5079841;28;20241;-84
2022/12/26 01:24:46;;;;;;;8.97;8.67;;;9.60;99.90;;;;;;5080519;28;20288;-84
2022/12/26 01:27:16;;;;;;;8.80;8.60;;;9.60;99.90;;;;;;5080063;28;20234;-84
2022/12/26 01:29:43;;;;;;;9.07;8.77;;;9.50;99.90;;;;;;5080699;28;20226;-83
2022/12/26 01:32:11;;;;;;;8.77;8.57;;;9.50;99.90;;;;;;5080383;28;20229;-83
2022/12/26 01:34:39;;;;;;;8.67;8.47;;;9.50;99.90;;;;;;5081965;28;20249;-83
2022/12/26 01:37:06;;;;;;;9.00;8.70;;;9.50;99.90;;;;;;5081094;28;20296;-83
2022/12/26 01:39:34;;;;;;;8.80;8.60;;;9.50;99.90;;;;;;5080253;28;20229;-83
2022/12/26 01:42:02;;;;;;;8.73;8.53;;;9.50;99.90;;;;;;5081634;28;20253;-83
2022/12/26 01:45:21;;;;;;;8.80;8.60;;;9.40;99.90;;;;;;5080591;28;20230;-84
2022/12/26 01:47:54;;;;;;;9.00;8.70;;;9.50;99.90;;;;;;5080923;28;20329;-83
2022/12/26 01:50:36;;;;;;;8.80;8.60;;;9.40;99.90;;;;;;5080031;28;20238;-83
2022/12/26 01:53:12;;;;;;;8.90;8.70;;;9.40;99.90;;;;;;5080026;28;20317;-83
2022/12/26 01:55:40;;;;;;;8.80;8.60;;;9.30;99.90;;;;;;5080034;28;20236;-84
2022/12/26 01:58:15;;;;;;;8.67;8.47;;;9.30;99.90;;;;;;5080559;28;20306;-85
2022/12/26 02:00:44;;;;;;;8.80;8.60;;;9.20;99.90;;;;;;5080521;28;20685;-84
2022/12/26 02:06:15;;;;;;;8.73;8.53;;;9.20;99.90;;;;;;5019351;28;20224;-84
2022/12/26 02:08:43;;;;;;;8.70;8.50;;;9.20;99.90;;;;;;5017991;28;20248;-84
2022/12/26 02:11:17;;;;;;;8.93;8.70;;;9.20;99.90;;;;;;5046092;28;20250;-84
2022/12/26 02:13:48;;;;;;;8.77;8.57;;;9.20;99.90;;;;;;5080358;28;20228;-84
2022/12/26 02:16:38;;;;;;;8.97;8.67;;;9.20;99.90;;;;;;5080341;28;20264;-84
2022/12/26 02:19:20;;;;;;;9.13;8.83;;;9.20;99.90;;;;;;5080280;28;20242;-84
2022/12/26 02:22:27;;;;;;;9.10;8.80;;;9.20;99.90;;;;;;5080062;28;20222;-84
2022/12/26 02:25:17;;;;;;;8.80;8.60;;;9.20;99.90;;;;;;5077587;28;20249;-84
2022/12/26 02:28:18;;;;;;;8.90;8.67;;;9.10;99.90;;;;;;5079336;28;20296;-84
2022/12/26 02:30:58;;;;;;;9.10;8.80;;;9.00;99.90;;;;;;5079237;28;20230;-84
2022/12/26 02:33:41;;;;;;;8.73;8.53;;;9.00;99.90;;;;;;5079240;28;20230;-84
2022/12/26 02:36:36;;;;;;;9.00;8.70;;;9.00;99.90;;;;;;5079389;28;20234;-84
2022/12/26 02:39:24;;;;;;;8.80;8.60;;;9.00;99.90;;;;;;5078899;28;20274;-84
2022/12/26 02:42:03;;;;;;;8.80;8.60;;;9.00;99.90;;;;;;5079730;28;20230;-84
2022/12/26 02:47:38;;;;;;;9.20;8.90;;;9.20;99.90;;;;;;5081202;28;20371;-82
2022/12/26 03:13:21;;;;;;;9.30;9.00;;;9.40;99.90;;;;;;5079066;28;20234;-84
2022/12/26 03:18:45;;;;;;;9.30;9.00;;;9.40;99.90;;;;;;5083362;28;20250;-84
2022/12/26 03:21:18;;;;;;;9.23;8.93;;;9.30;99.90;;;;;;5085740;28;20265;-84
2022/12/26 03:23:47;;;;;;;9.17;8.87;;;9.30;99.90;;;;;;5090056;28;20334;-84
2022/12/26 03:26:40;;;;;;;9.10;8.80;;;9.30;99.90;;;;;;5096523;28;20237;-84
2022/12/26 03:31:59;;;;;;;9.30;9.00;;;9.30;99.90;;;;;;5062634;28;20210;-83
2022/12/26 03:34:27;;;;;;;9.13;8.83;;;9.30;99.90;;;;;;5097031;28;20217;-84
2022/12/26 03:37:42;;;;;;;9.20;8.90;;;9.20;99.90;;;;;;5098613;28;20256;-84
2022/12/26 04:20:52;;;;;;;8.97;8.67;;;9.60;99.90;;;;;;5093261;28;20236;-82
2022/12/26 04:46:09;;;;;;;9.30;9.00;;;10.00;99.90;;;;;;5088461;28;20233;-84
2022/12/26 04:51:28;;;;;;;9.30;9.00;;;10.00;99.90;;;;;;5114364;28;20218;-83
2022/12/26 04:54:02;;;;;;;9.27;8.97;;;10.00;99.90;;;;;;5119827;28;20293;-83
2022/12/26 04:56:30;;;;;;;9.30;9.00;;;10.00;99.90;;;;;;5120632;28;20222;-83
2022/12/26 04:58:59;;;;;;;9.10;8.80;;;9.90;99.90;;;;;;5119924;28;20244;-83
2022/12/26 05:09:58;;;;;;;9.10;8.80;;;9.90;99.90;;;;;;5119119;28;20206;-83
2022/12/26 05:12:28;;;;;;;9.17;8.87;;;9.90;99.90;;;;;;5119383;28;20233;-83
2022/12/26 05:14:58;;;;;;;9.13;8.83;;;9.90;99.90;;;;;;5120151;28;20213;-82
2022/12/26 05:29:02;;;;;;;9.30;9.00;;;10.00;99.90;;;;;;5118564;28;20225;-84
2022/12/26 05:31:31;;;;;;;9.20;8.90;;;10.00;99.90;;;;;;5118571;28;20300;-84
2022/12/26 05:34:09;;;;;;;9.20;8.90;;;9.90;99.90;;;;;;5118841;28;20217;-84
2022/12/26 05:36:41;;;;;;;9.10;8.80;;;10.00;99.90;;;;;;5118934;28;20218;-84
2022/12/26 05:39:10;;;;;;;9.03;8.73;;;10.00;99.90;;;;;;5118317;28;20241;-84
2022/12/26 05:41:40;;;;;;;9.30;9.00;;;10.10;99.90;;;;;;5118220;28;20234;-84
2022/12/26 05:44:08;;;;;;;9.13;8.83;;;10.20;99.90;;;;;;5118356;28;20221;-84
2022/12/26 05:46:38;;;;;;;9.10;8.80;;;10.20;99.90;;;;;;5119524;28;20229;-84
2022/12/26 05:49:16;;;;;;;9.00;8.70;;;10.30;99.90;;;;;;5119342;28;20260;-84
2022/12/26 05:51:45;;;;;;;9.03;8.73;;;10.30;99.90;;;;;;5117212;28;20255;-84
2022/12/26 05:54:16;;;;;;;9.00;8.70;;;10.40;99.90;;;;;;5117497;28;20208;-84
2022/12/26 05:56:44;;;;;;;9.17;8.87;;;10.50;99.90;;;;;;5118956;28;20230;-84
2022/12/26 05:59:14;;;;;;;9.20;8.90;;;10.70;99.90;;;;;;5112275;28;20252;-84
2022/12/26 06:01:43;;;;;;;9.10;8.80;;;10.80;99.90;;;;;;5104353;28;20229;-85
2022/12/26 06:04:21;;;;;;;9.00;8.73;;;11.00;99.90;;;;;;5105051;28;20217;-85
2022/12/26 06:06:55;;;;;;;9.00;8.73;;;11.10;99.90;;;;;;5105071;28;20252;-85
2022/12/26 06:09:23;;;;;;;9.20;8.90;;;11.20;99.90;;;;;;5104568;28;20300;-84
2022/12/26 06:11:50;;;;;;;9.07;8.80;;;11.30;99.90;;;;;;5103841;28;20241;-85
2022/12/26 06:14:20;;;;;;;9.17;8.87;;;11.30;99.90;;;;;;5103967;28;20236;-85
2022/12/26 06:16:50;;;;;;;8.70;8.50;;;11.40;99.90;;;;;;5104138;28;20229;-84
2022/12/26 06:19:21;;;;;;;8.83;8.63;;;11.50;99.90;;;;;;5103395;28;20233;-85
2022/12/26 06:21:49;;;;;;;8.83;8.63;;;11.50;99.90;;;;;;5103440;28;21087;-84
2022/12/26 06:24:17;;;;;;;8.80;8.60;;;11.50;99.90;;;;;;5103207;28;20253;-85
2022/12/26 06:26:46;;;;;;;9.20;8.90;;;11.50;99.90;;;;;;5102598;28;20293;-85
2022/12/26 06:29:16;;;;;;;8.93;8.70;;;11.60;99.90;;;;;;5103047;28;20324;-85
2022/12/26 06:31:45;;;;;;;8.83;8.63;;;11.60;99.90;;;;;;5103013;28;20688;-85
2022/12/26 06:34:15;;;;;;;9.20;8.90;;;11.60;99.90;;;;;;5103909;28;20237;-85
2022/12/26 06:36:47;;;;;;;9.20;8.90;;;11.60;99.90;;;;;;5103544;28;20237;-85
2022/12/26 06:39:14;;;;;;;8.80;8.60;;;11.60;99.90;;;;;;5102763;28;20237;-85
2022/12/26 06:41:44;;;;;;;8.83;8.63;;;11.60;99.90;;;;;;5102885;28;20238;-85
2022/12/26 06:44:13;;;;;;;8.90;8.70;;;11.60;99.90;;;;;;5102765;28;20218;-85
2022/12/26 06:46:44;;;;;;;9.10;8.80;;;11.70;99.90;;;;;;5103240;28;20255;-85
2022/12/26 06:49:11;;;;;;;9.00;8.70;;;11.70;99.90;;;;;;5104473;28;20248;-85
2022/12/26 06:51:43;;;;;;;9.13;8.83;;;11.70;99.90;;;;;;5107154;28;20368;-84
2022/12/26 06:54:13;;;;;;;9.30;9.00;;;11.70;99.90;;;;;;5108527;28;20319;-84
2022/12/26 06:56:41;;;;;;;9.47;9.17;;;11.80;99.90;;;;;;5107385;28;20256;-84
2022/12/26 06:59:11;;;;;;;9.10;8.80;;;11.70;99.90;;;;;;5107593;28;20229;-84
2022/12/26 07:01:39;;;;;;;9.10;8.80;;;11.70;99.90;;;;;;5111065;28;20221;-84
2022/12/26 07:04:09;;;;;;;9.10;8.80;;;11.70;99.90;;;;;;5115222;28;20735;-84
2022/12/26 07:06:39;;;;;;;9.63;9.33;;;11.70;99.90;;;;;;5109352;28;20768;-84
2022/12/26 07:09:09;;;;;;;9.57;9.27;;;11.70;99.90;;;;;;5108651;28;20233;-85
2022/12/26 07:11:47;;;;;;;9.77;9.47;;;11.80;99.90;;;;;;5106036;28;20341;-85
2022/12/26 07:14:15;;;;;;;9.53;9.23;;;11.80;99.90;;;;;;5105444;28;20221;-85
2022/12/26 07:16:45;;;;;;;9.60;9.30;;;11.80;99.90;;;;;;5106832;28;20295;-84
2022/12/26 07:19:14;;;;;;;9.70;9.40;;;11.80;99.90;;;;;;5106425;28;20245;-85
2022/12/26 07:21:43;;;;;;;9.40;9.10;;;11.80;99.90;;;;;;5107466;28;20225;-85
2022/12/26 07:27:03;;;;;;;9.67;9.37;;;11.80;99.90;;;;;;5108232;28;20269;-87
2022/12/26 07:29:31;;;;;;;9.47;9.17;;;11.80;99.90;;;;;;5108927;28;20232;-85
2022/12/26 07:31:59;;;;;;;9.30;9.00;;;11.80;99.90;;;;;;5108059;28;20249;-84
2022/12/26 07:34:29;;;;;;;9.27;8.97;;;11.80;99.90;;;;;;5108413;28;20329;-85
2022/12/26 07:36:57;;;;;;;9.03;8.80;;;11.80;99.90;;;;;;5107191;28;20256;-85
2022/12/26 07:39:27;;;;;;;8.77;8.57;;;11.80;99.90;;;;;;5105532;28;20233;-85
2022/12/26 07:42:00;;;;;;;9.00;8.70;;;11.80;99.90;;;;;;5105018;28;20249;-87
2022/12/26 07:44:38;;;;;;;9.20;8.90;;;11.90;99.90;;;;;;5108812;28;20237;-87
2022/12/26 07:47:06;;;;;;;9.03;8.73;;;11.90;99.90;;;;;;5107334;28;20254;-85
2022/12/26 07:49:35;;;;;;;9.30;9.00;;;11.90;99.90;;;;;;5107399;28;20264;-87
2022/12/26 07:52:04;;;;;;;9.40;9.10;;;11.90;99.90;;;;;;5107638;28;20237;-84
2022/12/26 07:54:34;;;;;;;9.10;8.80;;;11.90;99.90;;;;;;5106888;28;20281;-84
2022/12/26 07:57:03;;;;;;;9.20;8.90;;;11.90;99.90;;;;;;5114152;28;20287;-85
2022/12/26 07:59:43;;;;;;;9.27;8.97;;;11.90;99.90;;;;;;5109876;28;20236;-85
2022/12/26 08:02:11;;;;;;;9.10;8.80;;;11.90;99.90;;;;;;5107156;28;20328;-84
2022/12/26 08:04:42;;;;;;;9.10;8.80;;;11.90;99.90;;;;;;5113511;28;20241;-83
2022/12/26 08:07:10;;;;;;;9.10;8.80;;;11.90;99.90;;;;;;5110587;28;20256;-85
2022/12/26 08:09:41;;;;;;;9.10;8.80;;;11.80;99.90;;;;;;5107806;28;20232;-85
2022/12/26 08:12:09;;;;;;;9.23;8.93;;;11.80;99.90;;;;;;5106268;28;20238;-85
2022/12/26 08:14:41;;;;;;;9.00;8.70;;;11.70;99.90;;;;;;5105871;28;20278;-85
2022/12/26 08:17:09;;;;;;;9.00;8.70;;;11.70;99.90;;;;;;5105439;28;20236;-84
2022/12/26 08:19:37;;;;;;;9.07;8.77;;;11.60;99.90;;;;;;5106014;28;20237;-84
2022/12/26 08:22:09;;;;;;;9.03;8.73;;;11.60;99.90;;;;;;5105038;28;20257;-85
2022/12/26 08:24:36;;;;;;;8.63;8.43;;;11.60;99.90;;;;;;5106504;28;20295;-86
2022/12/26 08:27:06;;;;;;;8.70;8.50;;;11.50;99.90;;;;;;5105947;28;20229;-86
2022/12/26 08:29:36;;;;;;;8.47;8.27;;;11.60;99.90;;;;;;5107451;28;20291;-85
2022/12/26 08:34:53;;;;;;;8.93;8.67;;;11.50;99.90;;;;;;5107428;28;20302;-85
2022/12/26 08:37:22;;;;;;;8.87;8.67;;;11.50;99.90;;;;;;5105890;28;20229;-86
2022/12/26 08:39:51;;;;;;;9.23;8.93;;;11.50;99.90;;;;;;5105401;28;20281;-86
2022/12/26 08:42:19;;;;;;;8.80;8.60;;;11.50;99.90;;;;;;5105326;28;20229;-86
2022/12/26 08:44:49;;;;;;;8.60;8.40;;;11.50;99.90;;;;;;5106201;28;20222;-86
2022/12/26 08:47:27;;;;;;;8.70;8.50;;;11.50;99.90;;;;;;5105616;28;20234;-85
2022/12/26 08:49:57;;;;;;;8.80;8.60;;;11.50;99.90;;;;;;5106324;28;20217;-86
2022/12/26 08:52:26;;;;;;;8.80;8.60;;;11.50;99.90;;;;;;5104900;28;20232;-86
2022/12/26 08:54:56;;;;;;;8.60;8.40;;;11.40;99.90;;;;;;5104993;28;20233;-86
2022/12/26 08:57:25;;;;;;;8.70;8.50;;;11.40;99.90;;;;;;5105306;28;20305;-85
2022/12/26 08:59:55;;;;;;;9.00;8.70;;;11.40;99.90;;;;;;5105620;28;20229;-86
2022/12/26 09:02:33;;;;;;;8.77;8.57;;;11.30;99.90;;;;;;5105147;28;20249;-86
2022/12/26 09:05:03;;;;;;;8.70;8.50;;;11.40;99.90;;;;;;5105332;28;20236;-86
2022/12/26 09:07:32;;;;;;;8.70;8.50;;;11.40;99.90;;;;;;5104869;28;20260;-85
2022/12/26 09:10:01;;;;;;;8.70;8.50;;;11.40;99.90;;;;;;5105390;28;20259;-86
2022/12/26 09:12:30;;;;;;;8.60;8.40;;;11.40;99.90;;;;;;5104884;28;20324;-85
2022/12/26 09:15:00;;;;;;;8.40;8.20;;;11.40;99.90;;;;;;5105151;28;20316;-86
2022/12/26 09:17:38;;;;;;;8.50;8.30;;;11.40;99.90;;;;;;5104777;28;20233;-85
2022/12/26 09:20:07;;;;;;;8.60;8.40;;;11.40;99.90;;;;;;5105799;28;20233;-86
2022/12/26 09:22:55;;;;;;;8.77;8.57;;;11.50;99.90;;;;;;5104569;28;20268;-86
2022/12/26 09:25:26;;;;;;;8.60;8.40;;;11.60;99.90;;;;;;5105671;28;20224;-86
2022/12/26 09:27:54;;;;;;;8.70;8.50;;;11.60;99.90;;;;;;5105462;28;20237;-86
2022/12/26 09:30:23;;;;;;;8.70;8.50;;;11.60;99.90;;;;;;5107910;28;20261;-86
2022/12/26 09:33:02;;;;;;;8.60;8.40;;;11.60;99.90;;;;;;5105154;28;20268;-86
2022/12/26 09:35:31;;;;;;;8.50;8.30;;;11.70;99.90;;;;;;5104515;28;20229;-86
2022/12/26 09:38:00;;;;;;;8.60;8.40;;;11.60;99.90;;;;;;5104703;28;20292;-86
2022/12/26 09:40:49;;;;;;;8.60;8.40;;;11.60;99.90;;;;;;5105123;28;20256;-86
2022/12/26 09:43:29;;;;;;;8.50;8.30;;;11.60;99.90;;;;;;5104227;28;20235;-86
2022/12/26 09:46:16;;;;;;;8.40;8.20;;;11.60;99.90;;;;;;5104416;28;20229;-86
2022/12/26 09:49:01;;;;;;;8.63;8.43;;;11.60;99.90;;;;;;5104396;28;20237;-86
2022/12/26 09:51:31;;;;;;;8.53;8.33;;;11.70;99.90;;;;;;5102899;28;20249;-86
2022/12/26 09:54:09;;;;;;;8.70;8.50;;;11.80;99.90;;;;;;5103246;28;20225;-86
2022/12/26 09:56:40;;;;;;;8.80;8.60;;;11.80;99.90;;;;;;5103683;28;20313;-86
2022/12/26 09:59:17;;;;;;;8.67;8.47;;;11.70;99.90;;;;;;5103356;28;20225;-86
2022/12/26 10:01:47;;;;;;;8.60;8.40;;;11.60;99.90;;;;;;5103225;28;20305;-86
2022/12/26 10:04:24;;;;;;;9.07;8.80;;;11.60;99.90;;;;;;5104927;28;20220;-86
2022/12/26 10:07:03;;;;;;;8.70;8.50;;;11.50;99.90;;;;;;5110332;28;20239;-86
2022/12/26 10:10:00;;;;;;;8.80;8.60;;;11.50;99.90;;;;;;5105581;28;20228;-86
2022/12/26 10:12:46;;;;;;;8.77;8.57;;;11.40;99.90;;;;;;5104942;28;20225;-86
2022/12/26 10:15:32;;;;;;;9.07;8.77;;;11.40;99.90;;;;;;5104116;28;20267;-86
2022/12/26 10:18:20;;;;;;;8.67;8.47;;;11.40;99.90;;;;;;5102944;28;20229;-86
2022/12/26 10:21:16;;;;;;;8.70;8.50;;;11.30;99.90;;;;;;5102599;28;20251;-86
2022/12/26 10:23:47;;;;;;;8.63;8.43;;;11.30;99.90;;;;;;5104440;28;20312;-86
2022/12/26 10:26:24;;;;;;;8.40;8.20;;;11.20;99.90;;;;;;5108361;28;20225;-86
2022/12/26 10:29:03;;;;;;;8.37;8.17;;;11.10;99.90;;;;;;5107036;28;20241;-86
2022/12/26 10:31:40;;;;;;;8.17;7.97;;;11.00;99.90;;;;;;5106558;28;20235;-86
2022/12/26 10:34:19;;;;;;;8.10;7.90;;;10.90;99.90;;;;;;5106625;28;20225;-86
2022/12/26 10:36:56;;;;;;;8.20;8.00;;;10.80;99.90;;;;;;5106371;28;20311;-85
2022/12/26 10:39:37;;;;;;;7.80;7.60;;;10.70;99.90;;;;;;5126360;22;20332;-87
2022/12/26 10:42:39;;;;;;;7.70;7.50;;;10.60;99.90;;;;;;5102167;28;20283;-87
2022/12/26 10:45:19;;;;;;;7.60;7.40;;;10.60;99.90;;;;;;5102590;28;20302;-87
2022/12/26 10:48:04;;;;;;;7.57;7.37;;;10.60;99.90;;;;;;5102879;28;20312;-87
2022/12/26 10:50:48;;;;;;;7.70;7.50;;;10.50;99.90;;;;;;5106315;28;20213;-87
2022/12/26 10:53:50;;;;;;;7.50;7.30;;;10.50;99.90;;;;;;5105420;28;20229;-87
2022/12/26 10:59:34;;;;;;;7.20;7.00;;;10.40;99.90;;;;;;5102501;28;20213;-87
2022/12/26 11:03:03;;;;;;;7.07;6.87;;;10.30;99.90;;;;;;5108200;28;20237;-86
2022/12/26 12:16:52;;;;;;;6.83;6.63;;;10.10;99.90;;;;;;5063694;28;20944;-89
2022/12/26 12:20:42;;;;;;;6.90;6.70;;;10.10;99.90;;;;;;5034572;28;20330;-88
2022/12/26 13:04:13;;;;;;;7.57;7.37;;;10.20;99.90;;;;;;5018542;28;20217;-88
2022/12/26 13:27:41;;;;;;;7.60;7.40;;;10.40;99.90;;;;;;5056347;28;20227;-88
2022/12/26 13:30:39;;;;;;;7.43;7.23;;;10.30;99.90;;;;;;5098850;28;20288;-88
2022/12/26 13:33:37;;;;;;;7.40;7.20;;;10.30;99.90;;;;;;5098862;28;20233;-89
2022/12/26 13:37:05;;;;;;;7.67;7.47;;;10.30;99.90;;;;;;5099502;28;20233;-88
2022/12/26 13:51:29;;;;;;;7.50;7.30;;;10.20;99.90;;;;;;5056275;28;20278;-87
2022/12/26 14:07:15;;;;;;;7.80;7.60;;;10.20;99.90;;;;;;5097565;28;20315;-88
2022/12/26 14:24:16;;;;;;;7.40;7.20;;;10.10;99.90;;;;;;5083776;28;20233;-88
2022/12/26 14:31:28;;;;;;;7.27;7.07;;;10.10;99.90;;;;;;5031863;28;20235;-88
2022/12/26 15:08:32;;;;;;;;;;;;;;;;;;;;;
2022/12/26 15:12:20;;;;;;;6.73;6.53;;;10.00;99.90;;;;;;5110871;28;21134;-87
2022/12/26 15:38:33;;;;;;;7.50;7.30;;;9.90;99.90;;;;;;4899259;28;20205;-86
2022/12/26 15:42:06;;;;;;;6.73;6.53;;;9.90;99.90;;;;;;5020328;28;20217;-86
2022/12/26 15:49:38;;;;;;;7.00;6.80;;;9.80;99.90;;;;;;5034669;28;20212;-87
2022/12/26 16:11:36;;;;;;;6.33;6.13;;;9.60;99.90;;;;;;5042314;28;20223;-88
2022/12/26 16:15:01;;;;;;;6.53;6.33;;;9.60;99.90;;;;;;5043005;28;20219;-89
2022/12/26 16:28:45;;;;;;;6.90;6.70;;;9.60;99.90;;;;;;5112318;28;20221;-89
2022/12/26 16:35:10;;;;;;;7.00;6.80;;;9.60;99.90;;;;;;5101190;28;20253;-89
2022/12/26 16:38:17;;;;;;;6.90;6.70;;;9.60;99.90;;;;;;5100408;28;20260;-88
2022/12/26 16:40:49;;;;;;;6.70;6.50;;;9.60;99.90;;;;;;5142691;22;20205;-85
2022/12/26 16:43:27;;;;;;;6.57;6.37;;;9.60;99.90;;;;;;5114398;28;20230;-85
2022/12/26 16:51:39;;;;;;;6.90;6.70;;;9.60;99.90;;;;;;5084258;28;20225;-86
2022/12/26 16:54:35;;;;;;;6.67;6.47;;;9.60;99.90;;;;;;5085366;28;20245;-86
2022/12/26 16:57:14;;;;;;;6.83;6.63;;;9.60;99.90;;;;;;5088501;28;20250;-85
2022/12/26 16:59:51;;;;;;;7.00;6.80;;;9.60;99.90;;;;;;5084198;28;20226;-85
2022/12/26 17:02:33;;;;;;;7.03;6.83;;;9.60;99.90;;;;;;5084638;28;20226;-85
2022/12/26 17:05:08;;;;;;;7.00;6.80;;;9.60;99.90;;;;;;5084573;28;20225;-85
2022/12/26 17:07:46;;;;;;;7.10;6.90;;;9.60;99.90;;;;;;5084530;28;20275;-86
2022/12/26 17:10:25;;;;;;;7.10;6.90;;;9.50;99.90;;;;;;5083441;28;20238;-85
2022/12/26 17:13:02;;;;;;;7.50;7.30;;;9.50;99.90;;;;;;5083737;28;20241;-85
2022/12/26 17:15:33;;;;;;;7.20;7.00;;;9.50;99.90;;;;;;5084705;28;20268;-85
2022/12/26 17:18:45;;;;;;;7.13;6.93;;;9.50;99.90;;;;;;5084775;28;20245;-85
2022/12/26 17:21:24;;;;;;;6.97;6.77;;;9.50;99.90;;;;;;5083794;28;20240;-85
2022/12/26 17:27:18;;;;;;;7.00;6.80;;;9.40;99.90;;;;;;5084429;28;20228;-86
2022/12/26 17:30:29;;;;;;;6.80;6.60;;;9.40;99.90;;;;;;5083696;28;20324;-85
2022/12/26 17:33:07;;;;;;;6.73;6.53;;;9.40;99.90;;;;;;5080955;28;20253;-85
2022/12/26 17:35:36;;;;;;;6.93;6.73;;;9.50;99.90;;;;;;5083870;28;20241;-85
2022/12/26 17:38:16;;;;;;;6.90;6.70;;;9.50;99.90;;;;;;5085407;28;20268;-85
2022/12/26 17:40:47;;;;;;;7.00;6.80;;;9.50;99.90;;;;;;5084389;28;20261;-85
2022/12/26 17:43:24;;;;;;;7.07;6.87;;;9.50;99.90;;;;;;5083418;28;20233;-85
2022/12/26 17:49:06;;;;;;;6.90;6.70;;;9.50;99.90;;;;;;5083629;28;20230;-86
2022/12/26 17:51:35;;;;;;;6.93;6.73;;;9.50;99.90;;;;;;5082611;28;20234;-85
2022/12/26 17:54:05;;;;;;;7.17;6.97;;;9.50;99.90;;;;;;5083031;28;20234;-85
2022/12/26 17:56:34;;;;;;;6.93;6.73;;;9.50;99.90;;;;;;5083700;28;20310;-85
2022/12/26 17:59:04;;;;;;;7.20;7.00;;;9.60;99.90;;;;;;5082322;28;20279;-85
2022/12/26 18:04:20;;;;;;;7.30;7.10;;;9.60;99.90;;;;;;5082756;28;20218;-86
2022/12/26 18:06:50;;;;;;;7.27;7.07;;;9.60;99.90;;;;;;5082951;28;20266;-85
2022/12/26 18:09:30;;;;;;;7.40;7.20;;;9.70;99.90;;;;;;5082786;28;20238;-86
2022/12/26 18:11:58;;;;;;;7.53;7.33;;;9.70;99.90;;;;;;5082044;28;20261;-86
2022/12/26 18:14:27;;;;;;;7.60;7.40;;;9.70;99.90;;;;;;5081897;28;20238;-85
2022/12/26 18:17:08;;;;;;;7.47;7.27;;;9.70;99.90;;;;;;5082855;28;20249;-85
2022/12/26 18:19:43;;;;;;;7.50;7.30;;;9.80;99.90;;;;;;5082393;28;20242;-86
2022/12/26 18:22:18;;;;;;;7.80;7.60;;;9.80;99.90;;;;;;5082185;28;20233;-85
2022/12/26 18:24:53;;;;;;;7.80;7.60;;;9.80;99.90;;;;;;5082045;28;20321;-85
2022/12/26 18:27:30;;;;;;;7.60;7.40;;;9.90;99.90;;;;;;5082119;28;20228;-86
2022/12/26 18:29:59;;;;;;;7.80;7.60;;;9.80;99.90;;;;;;5082247;28;20237;-86
2022/12/26 18:32:39;;;;;;;7.70;7.50;;;9.90;99.90;;;;;;5081894;28;20226;-85
2022/12/26 18:35:08;;;;;;;7.70;7.50;;;9.80;99.90;;;;;;5081889;28;20230;-85
2022/12/26 18:37:36;;;;;;;7.60;7.40;;;9.80;99.90;;;;;;5082633;28;20229;-85
2022/12/26 18:40:05;;;;;;;7.80;7.60;;;9.80;99.90;;;;;;5081608;28;20268;-85
2022/12/26 18:42:36;;;;;;;7.90;7.70;;;9.90;99.90;;;;;;5081802;28;20314;-85
2022/12/26 18:45:05;;;;;;;8.00;7.80;;;9.80;99.90;;;;;;5084355;28;20222;-86
2022/12/26 18:47:42;;;;;;;7.90;7.70;;;9.80;99.90;;;;;;5085977;28;20317;-85
2022/12/26 18:50:13;;;;;;;7.50;7.30;;;9.80;99.90;;;;;;5086721;28;20245;-85
2022/12/26 18:52:42;;;;;;;7.60;7.40;;;9.80;99.90;;;;;;5092929;28;20226;-86
2022/12/26 18:55:11;;;;;;;7.60;7.40;;;9.80;99.90;;;;;;5090451;28;20245;-86
2022/12/26 18:57:41;;;;;;;7.60;7.40;;;9.80;99.90;;;;;;5089158;28;20225;-85
2022/12/26 19:00:22;;;;;;;7.40;7.20;;;9.70;99.90;;;;;;5086837;28;20238;-85
2022/12/26 19:05:35;;;;;;;7.20;7.00;;;9.60;99.90;;;;;;5084986;28;20225;-85
2022/12/26 19:08:04;;;;;;;7.30;7.10;;;9.50;99.90;;;;;;5086329;28;20230;-85
2022/12/26 19:10:35;;;;;;;7.80;7.60;;;9.40;99.90;;;;;;5086012;28;20302;-85
2022/12/26 19:13:04;;;;;;;8.03;7.83;;;9.20;99.90;;;;;;5084777;28;20226;-86
2022/12/26 19:15:35;;;;;;;8.30;8.10;;;9.10;99.90;;;;;;5085107;28;20229;-85
2022/12/26 19:18:12;;;;;;;8.40;8.20;;;9.00;99.90;;;;;;5085409;28;20234;-85
2022/12/26 19:20:41;;;;;;;8.30;8.10;;;8.90;99.90;;;;;;5084682;28;20303;-85
2022/12/26 19:23:10;;;;;;;8.30;8.10;;;8.80;99.90;;;;;;5084721;28;20261;-85
2022/12/26 19:25:40;;;;;;;8.20;8.00;;;8.70;99.90;;;;;;5084131;28;20230;-86
2022/12/26 19:28:09;;;;;;;7.97;7.77;;;8.60;99.90;;;;;;5084433;28;20286;-85
2022/12/26 19:30:38;;;;;;;8.00;7.80;;;8.50;99.90;;;;;;5084548;28;20261;-86
2022/12/26 19:35:56;;;;;;;8.03;7.83;;;8.40;99.90;;;;;;5084378;28;20218;-85
2022/12/26 19:38:24;;;;;;;7.80;7.60;;;8.30;99.90;;;;;;5084046;28;20262;-85
2022/12/26 19:40:57;;;;;;;7.80;7.60;;;8.30;99.90;;;;;;5085341;28;20238;-85
2022/12/26 19:43:25;;;;;;;8.00;7.80;;;8.30;99.90;;;;;;5099032;28;20230;-84
2022/12/26 19:46:03;;;;;;;7.77;7.57;;;8.30;99.90;;;;;;5085131;28;20245;-85
2022/12/26 19:48:41;;;;;;;7.80;7.60;;;8.30;99.90;;;;;;5085156;28;20230;-85
2022/12/26 19:51:12;;;;;;;7.60;7.40;;;8.20;99.90;;;;;;5083841;28;20328;-85
2022/12/26 19:53:41;;;;;;;7.70;7.50;;;8.30;99.90;;;;;;5083525;28;20230;-85
2022/12/26 19:56:10;;;;;;;7.80;7.60;;;8.20;99.90;;;;;;5083431;28;20230;-85
2022/12/26 19:58:39;;;;;;;7.60;7.40;;;8.20;99.90;;;;;;5083331;28;20281;-86
2022/12/26 20:01:19;;;;;;;7.60;7.40;;;8.20;99.90;;;;;;5083660;28;20226;-85
2022/12/26 20:03:56;;;;;;;7.70;7.50;;;8.20;99.90;;;;;;5084141;28;20254;-85
2022/12/26 20:06:35;;;;;;;7.97;7.77;;;8.20;99.90;;;;;;5084408;28;20261;-85
2022/12/26 20:09:17;;;;;;;7.90;7.70;;;8.20;99.90;;;;;;5085080;28;20292;-85
2022/12/26 20:11:50;;;;;;;7.70;7.50;;;8.20;99.90;;;;;;5084434;28;20249;-86
2022/12/26 20:14:20;;;;;;;8.00;7.80;;;8.20;99.90;;;;;;5083993;28;20269;-85
2022/12/26 20:16:52;;;;;;;8.10;7.90;;;8.20;99.90;;;;;;5083599;28;20226;-86
2022/12/26 20:19:29;;;;;;;7.77;7.57;;;8.10;99.90;;;;;;5083399;28;20222;-86
2022/12/26 20:21:57;;;;;;;8.00;7.80;;;8.10;99.90;;;;;;5083018;28;20218;-85
2022/12/26 20:24:26;;;;;;;8.00;7.80;;;8.00;99.90;;;;;;5083085;28;20273;-85
2022/12/26 20:26:57;;;;;;;7.80;7.60;;;8.00;99.90;;;;;;5082921;28;20256;-86
2022/12/26 20:29:25;;;;;;;8.00;7.80;;;8.00;99.90;;;;;;5082777;28;20238;-85
2022/12/26 20:31:54;;;;;;;8.00;7.80;;;8.00;99.90;;;;;;5082649;28;20308;-85
2022/12/26 20:34:33;;;;;;;7.80;7.60;;;8.00;99.90;;;;;;5081969;28;20241;-86
2022/12/26 20:37:02;;;;;;;7.73;7.53;;;8.00;99.90;;;;;;5082094;28;20234;-85